Waterstein, United Kingdom
Current Conditions -  °F | °C
As of 12:20 PM on Monday 20 Oct 2014 (Local Time) from EGPL Reporting Station
Rain Showers Rain Showers  
Wind Chill: 54°   Ceiling: 2000
Heat Index: 54°   Visibility: 6mi
Dew Point: 50°   Wind: 20mph
Humidity: 88%   Direction: 210°SSW
Pressure: 29.59"   Gusts: NA
Location:  57.43°N, 6.77°W
Report Text: EGPL 201120Z 21017KT 9999 VCSH FEW014 BKN020 12/10 Q1002
Loading
Personal Weather Stations






























Interactive Weather Map
Tropical Storm Tracking
New forecast layout! Learn more

10-Day Weather Forecast

Advertisements
Track Severe Weather on mobile